Time;durP1;ratioP1;P1;durP2;ratioP2;P2;SDS_P1;SDS_P2;PMS_P1;PMS_P2;Temp;Humidity;BMP_temperature;BMP_pressure;BME280_temperature;BME280_humidity;BME280_pressure;Samples;Min_cycle;Max_cycle;Signal;HPM_P1;HPM_P2
2022/09/02 00:01:10;;;;;;;2.47;0.77;;;14.80;99.90;;;;;;4984887;28;20042;-76
2022/09/02 00:03:36;;;;;;;24.05;1.92;;;14.80;99.90;;;;;;4985490;28;20058;-74
2022/09/02 00:06:02;;;;;;;3.03;1.00;;;14.80;99.90;;;;;;4984984;28;20042;-76
2022/09/02 00:08:30;;;;;;;2.17;1.35;;;14.70;99.90;;;;;;4984705;28;20055;-75
2022/09/02 00:10:57;;;;;;;1.88;0.93;;;14.70;99.90;;;;;;4993015;28;20038;-75
2022/09/02 00:13:23;;;;;;;3.60;1.00;;;14.70;99.90;;;;;;4993443;28;20053;-75
2022/09/02 00:15:49;;;;;;;1.45;0.95;;;14.60;99.90;;;;;;4986252;28;20370;-73
2022/09/02 00:18:16;;;;;;;2.28;1.05;;;14.60;99.90;;;;;;4986462;28;20070;-74
2022/09/02 00:20:44;;;;;;;1.92;0.73;;;14.60;99.90;;;;;;4985987;28;20046;-75
2022/09/02 00:23:11;;;;;;;5.80;0.80;;;14.60;99.90;;;;;;4987683;28;20405;-76
2022/09/02 00:25:38;;;;;;;4.75;1.10;;;14.60;99.90;;;;;;4989061;28;20434;-75
2022/09/02 00:28:05;;;;;;;4.70;1.27;;;14.50;99.90;;;;;;4988865;28;20421;-75
2022/09/02 00:30:31;;;;;;;0.50;0.50;;;14.50;99.90;;;;;;4989110;28;20039;-73
2022/09/02 00:32:58;;;;;;;1.27;0.82;;;14.50;99.90;;;;;;4990682;28;20382;-75
2022/09/02 00:35:23;;;;;;;3.63;0.77;;;14.50;99.90;;;;;;4990048;28;20045;-75
2022/09/02 00:37:49;;;;;;;4.57;1.15;;;14.40;99.90;;;;;;4988519;28;20050;-75
2022/09/02 00:40:16;;;;;;;4.30;1.00;;;14.40;99.90;;;;;;4988176;28;20042;-76
2022/09/02 00:42:41;;;;;;;2.65;1.30;;;14.30;99.90;;;;;;4987262;28;20085;-73
2022/09/02 00:45:09;;;;;;;2.67;0.90;;;14.30;99.90;;;;;;4989334;28;20128;-74
2022/09/02 00:47:35;;;;;;;0.75;0.63;;;14.30;99.90;;;;;;4987157;28;20134;-73
2022/09/02 00:50:03;;;;;;;3.50;1.38;;;14.20;99.90;;;;;;4988470;28;20096;-74
2022/09/02 00:52:34;;;;;;;0.88;0.73;;;14.30;99.90;;;;;;4988240;28;20706;-75
2022/09/02 00:55:09;;;;;;;1.13;0.80;;;14.20;99.90;;;;;;4989525;28;20149;-74
2022/09/02 00:57:49;;;;;;;3.00;1.30;;;14.10;99.90;;;;;;4985867;28;20500;-75
2022/09/02 01:00:19;;;;;;;6.18;1.63;;;14.10;99.90;;;;;;4984163;28;20046;-76
2022/09/02 01:02:52;;;;;;;1.45;0.88;;;14.10;99.90;;;;;;4988265;28;20034;-74
2022/09/02 01:05:19;;;;;;;4.18;1.48;;;14.10;99.90;;;;;;4987714;28;20047;-75
2022/09/02 01:07:46;;;;;;;1.48;0.50;;;14.00;99.90;;;;;;4987084;28;20034;-74
2022/09/02 01:10:18;;;;;;;2.30;1.33;;;14.00;99.90;;;;;;4987986;28;20054;-75
2022/09/02 01:12:44;;;;;;;6.78;1.13;;;13.90;99.90;;;;;;4987041;28;20046;-74
2022/09/02 01:15:11;;;;;;;6.70;1.15;;;13.90;99.90;;;;;;4988050;28;20045;-76
2022/09/02 01:17:45;;;;;;;2.55;1.00;;;13.90;99.90;;;;;;4985698;28;21352;-74
2022/09/02 01:20:14;;;;;;;2.00;1.23;;;13.90;99.90;;;;;;4988177;28;20059;-75
2022/09/02 01:22:41;;;;;;;2.42;1.35;;;13.80;99.90;;;;;;4986440;28;20047;-74
2022/09/02 01:25:12;;;;;;;2.42;1.55;;;13.70;99.90;;;;;;5000915;28;20350;-75
2022/09/02 01:27:39;;;;;;;4.38;1.20;;;13.80;99.90;;;;;;4986184;28;20173;-74
2022/09/02 01:30:07;;;;;;;1.73;1.20;;;13.70;99.90;;;;;;4987901;28;20053;-76
2022/09/02 01:32:32;;;;;;;4.38;0.85;;;13.80;99.90;;;;;;4987799;28;20552;-75
2022/09/02 01:34:58;;;;;;;1.80;1.00;;;13.70;99.90;;;;;;4977910;28;20062;-74
2022/09/02 01:37:24;;;;;;;2.25;0.77;;;13.70;99.90;;;;;;4984311;28;20802;-74
2022/09/02 01:39:51;;;;;;;2.80;0.77;;;13.70;99.90;;;;;;4986013;28;20194;-73
2022/09/02 01:42:17;;;;;;;4.72;1.42;;;13.60;99.90;;;;;;4985156;28;20367;-75
2022/09/02 01:44:43;;;;;;;1.90;0.88;;;13.60;99.90;;;;;;4988157;28;20050;-74
2022/09/02 01:47:19;;;;;;;0.93;0.70;;;13.60;99.90;;;;;;4997132;22;20046;-74
2022/09/02 01:49:46;;;;;;;3.95;1.60;;;13.60;99.90;;;;;;4968066;28;20067;-73
2022/09/02 01:52:12;;;;;;;2.63;1.25;;;13.50;99.90;;;;;;4975530;28;20093;-75
2022/09/02 01:54:38;;;;;;;6.10;1.75;;;13.50;99.90;;;;;;4973375;28;20046;-75
2022/09/02 01:57:04;;;;;;;0.88;0.73;;;13.50;99.90;;;;;;4993271;28;20374;-75
2022/09/02 01:59:30;;;;;;;5.32;1.23;;;13.60;99.90;;;;;;4984274;28;20050;-74
2022/09/02 02:01:55;;;;;;;7.60;1.33;;;13.50;99.90;;;;;;4987458;28;20452;-75
2022/09/02 02:04:23;;;;;;;3.75;1.27;;;13.40;99.90;;;;;;4984396;28;20042;-74
2022/09/02 02:06:50;;;;;;;1.42;1.00;;;13.40;99.90;;;;;;5004544;28;20125;-74
2022/09/02 02:09:16;;;;;;;1.67;0.90;;;13.40;99.90;;;;;;4992253;28;20077;-76
2022/09/02 02:11:42;;;;;;;2.78;0.88;;;13.40;99.90;;;;;;4986342;28;20100;-74
2022/09/02 02:14:08;;;;;;;2.15;0.80;;;13.30;99.90;;;;;;4987053;28;20147;-75
2022/09/02 02:16:34;;;;;;;1.48;1.38;;;13.30;99.90;;;;;;4986910;28;20053;-75
2022/09/02 02:19:01;;;;;;;3.95;0.98;;;13.30;99.90;;;;;;4985065;28;20039;-75
2022/09/02 02:21:27;;;;;;;6.22;0.80;;;13.30;99.90;;;;;;4986152;28;20042;-75
2022/09/02 02:23:53;;;;;;;5.00;0.65;;;13.20;99.90;;;;;;4987534;28;20039;-75
2022/09/02 02:26:19;;;;;;;3.42;1.35;;;13.20;99.90;;;;;;5005106;28;20546;-75
2022/09/02 02:28:45;;;;;;;11.30;2.35;;;13.20;99.90;;;;;;4996350;28;20050;-75
2022/09/02 02:31:10;;;;;;;5.80;1.00;;;13.30;99.90;;;;;;5018542;28;20046;-74
2022/09/02 02:33:37;;;;;;;4.90;0.98;;;13.20;99.90;;;;;;4986664;28;20090;-74
2022/09/02 02:36:04;;;;;;;1.13;1.00;;;13.20;99.90;;;;;;4988124;28;20034;-74
2022/09/02 02:38:32;;;;;;;4.53;1.20;;;13.20;99.90;;;;;;4988063;28;20100;-75
2022/09/02 02:40:58;;;;;;;1.17;1.08;;;13.20;99.90;;;;;;4986052;28;20050;-74
2022/09/02 02:43:25;;;;;;;3.20;1.30;;;13.10;99.90;;;;;;4984119;28;20046;-74
2022/09/02 02:45:51;;;;;;;1.23;1.13;;;13.20;99.90;;;;;;4986790;28;20038;-74
2022/09/02 02:48:17;;;;;;;1.45;0.90;;;13.10;99.90;;;;;;4984532;28;20129;-74
2022/09/02 02:50:43;;;;;;;1.88;1.08;;;13.20;99.90;;;;;;4986461;28;20047;-74
2022/09/02 02:53:11;;;;;;;4.55;1.80;;;13.10;99.90;;;;;;4998814;28;20188;-75
2022/09/02 02:55:37;;;;;;;2.33;0.93;;;13.10;99.90;;;;;;4994810;28;20056;-74
2022/09/02 02:58:02;;;;;;;1.17;0.85;;;13.10;99.90;;;;;;4984153;28;20125;-74
2022/09/02 03:00:30;;;;;;;3.78;1.15;;;13.20;99.90;;;;;;4983233;28;20101;-74
2022/09/02 03:03:03;;;;;;;2.30;1.27;;;13.10;99.90;;;;;;4985227;28;20386;-74
2022/09/02 03:05:29;;;;;;;2.85;1.10;;;13.10;99.90;;;;;;4984939;28;20077;-75
2022/09/02 03:07:55;;;;;;;9.25;1.95;;;13.00;99.90;;;;;;4987126;28;20412;-75
2022/09/02 03:10:22;;;;;;;2.38;1.48;;;13.00;99.90;;;;;;4986105;28;20121;-73
2022/09/02 03:12:49;;;;;;;2.85;1.20;;;13.10;99.90;;;;;;4983607;28;20440;-74
2022/09/02 03:15:17;;;;;;;2.25;0.85;;;13.10;99.90;;;;;;4982791;28;20073;-74
2022/09/02 03:17:47;;;;;;;1.27;1.05;;;13.10;99.90;;;;;;4970760;28;20046;-75
2022/09/02 03:20:14;;;;;;;2.28;1.25;;;13.10;99.90;;;;;;4986107;28;20621;-74
2022/09/02 03:22:42;;;;;;;3.65;1.02;;;13.00;99.90;;;;;;4983683;28;20551;-75
2022/09/02 03:25:09;;;;;;;3.63;0.98;;;13.10;99.90;;;;;;4982820;28;20054;-75
2022/09/02 03:27:37;;;;;;;3.67;1.45;;;13.00;99.90;;;;;;4985695;28;20076;-74
2022/09/02 03:30:08;;;;;;;4.07;1.13;;;13.00;99.90;;;;;;5018942;28;20054;-74
2022/09/02 03:32:34;;;;;;;6.47;1.23;;;13.00;99.90;;;;;;4987122;28;20042;-74
2022/09/02 03:35:04;;;;;;;2.80;0.98;;;13.00;99.90;;;;;;4984916;28;20081;-74
2022/09/02 03:37:29;;;;;;;6.93;1.20;;;13.00;99.90;;;;;;4987279;28;20046;-73
2022/09/02 03:39:55;;;;;;;2.00;1.05;;;13.00;99.90;;;;;;4986154;28;20057;-74
2022/09/02 03:42:20;;;;;;;1.25;1.15;;;13.00;99.90;;;;;;4986822;28;20049;-74
2022/09/02 03:44:46;;;;;;;4.15;1.30;;;13.00;99.90;;;;;;4986047;28;20069;-74
2022/09/02 03:47:13;;;;;;;1.42;1.02;;;12.90;99.90;;;;;;4982295;28;20531;-74
2022/09/02 03:49:39;;;;;;;2.08;1.17;;;12.90;99.90;;;;;;4986721;28;20121;-75
2022/09/02 03:52:05;;;;;;;1.00;0.90;;;12.90;99.90;;;;;;4984973;28;20117;-74
2022/09/02 03:54:31;;;;;;;3.83;1.33;;;12.90;99.90;;;;;;4990021;28;20046;-76
2022/09/02 03:56:57;;;;;;;3.75;1.58;;;12.80;99.90;;;;;;4991437;28;20052;-74
2022/09/02 03:59:23;;;;;;;3.13;0.77;;;12.80;99.90;;;;;;5010055;28;20400;-74
2022/09/02 04:01:50;;;;;;;1.88;1.35;;;12.80;99.90;;;;;;4996465;28;20043;-75
2022/09/02 04:04:18;;;;;;;2.53;1.10;;;12.70;99.90;;;;;;4985582;28;20042;-75
2022/09/02 04:06:44;;;;;;;5.50;1.30;;;12.70;99.90;;;;;;4988937;28;20098;-75
2022/09/02 04:09:09;;;;;;;3.13;1.20;;;12.70;99.90;;;;;;4990465;28;20133;-74
2022/09/02 04:11:41;;;;;;;1.90;0.90;;;12.60;99.90;;;;;;4989752;28;20049;-75
2022/09/02 04:14:07;;;;;;;0.60;0.60;;;12.60;99.90;;;;;;5003555;28;20054;-73
2022/09/02 04:16:34;;;;;;;4.53;1.50;;;12.60;99.90;;;;;;4990294;28;20752;-74
2022/09/02 04:19:00;;;;;;;1.25;0.93;;;12.60;99.90;;;;;;4990424;28;20042;-74
2022/09/02 04:21:27;;;;;;;4.55;1.25;;;12.60;99.90;;;;;;4989808;28;20100;-76
2022/09/02 04:23:53;;;;;;;1.45;1.00;;;12.50;99.90;;;;;;5017448;28;20066;-73
2022/09/02 04:26:20;;;;;;;3.40;1.27;;;12.50;99.90;;;;;;5018037;28;20416;-75
2022/09/02 04:28:47;;;;;;;2.00;1.77;;;12.50;99.90;;;;;;4989649;28;20046;-75
2022/09/02 04:31:16;;;;;;;1.10;1.02;;;12.50;99.90;;;;;;4969018;28;20054;-75
2022/09/02 04:33:42;;;;;;;2.38;1.00;;;12.40;99.90;;;;;;4993575;28;20139;-74
2022/09/02 04:36:11;;;;;;;2.78;1.85;;;12.40;99.90;;;;;;4992990;28;20090;-75
2022/09/02 04:38:37;;;;;;;1.70;1.17;;;12.40;99.90;;;;;;4989973;28;20038;-75
2022/09/02 04:41:18;;;;;;;8.80;1.77;;;12.30;99.90;;;;;;4989580;28;20049;-73
2022/09/02 04:43:43;;;;;;;3.42;1.30;;;12.30;99.90;;;;;;4996808;28;20038;-75
2022/09/02 04:46:13;;;;;;;1.85;1.13;;;12.20;99.90;;;;;;4996330;28;20046;-75
2022/09/02 04:48:39;;;;;;;3.63;1.02;;;12.20;99.90;;;;;;4988562;28;20065;-74
2022/09/02 04:51:07;;;;;;;3.03;1.38;;;12.20;99.90;;;;;;4989290;28;20517;-74
2022/09/02 04:53:33;;;;;;;1.77;1.23;;;12.20;99.90;;;;;;4991805;28;20434;-74
2022/09/02 04:55:59;;;;;;;1.23;1.08;;;12.20;99.90;;;;;;4985658;28;20045;-76
2022/09/02 04:58:27;;;;;;;1.88;1.13;;;12.20;99.90;;;;;;4986183;28;20627;-74
2022/09/02 05:00:53;;;;;;;2.88;1.55;;;12.10;99.90;;;;;;4989300;28;20126;-74
2022/09/02 05:03:18;;;;;;;2.08;1.85;;;12.20;99.90;;;;;;4988962;28;20124;-73
2022/09/02 05:05:45;;;;;;;2.63;1.33;;;12.10;99.90;;;;;;4998131;28;20057;-75
2022/09/02 05:08:11;;;;;;;1.60;1.00;;;12.10;99.90;;;;;;4987835;28;20051;-76
2022/09/02 05:10:39;;;;;;;4.70;1.63;;;12.10;99.90;;;;;;4985754;28;20046;-78
2022/09/02 05:13:05;;;;;;;3.90;1.40;;;12.10;99.90;;;;;;4986933;28;20357;-76
2022/09/02 05:15:31;;;;;;;4.03;2.03;;;12.10;99.90;;;;;;4988159;28;20117;-75
2022/09/02 05:17:56;;;;;;;3.15;1.45;;;12.10;99.90;;;;;;4986574;28;20058;-76
2022/09/02 05:20:23;;;;;;;3.03;1.67;;;12.20;99.90;;;;;;4985430;28;20097;-76
2022/09/02 05:22:49;;;;;;;1.48;1.02;;;12.20;99.90;;;;;;4985642;28;20046;-76
2022/09/02 05:25:15;;;;;;;8.70;1.85;;;12.20;99.90;;;;;;4993505;28;20154;-75
2022/09/02 05:27:40;;;;;;;3.20;1.27;;;12.30;99.90;;;;;;4987661;28;20154;-75
2022/09/02 05:30:07;;;;;;;1.52;1.13;;;12.30;99.90;;;;;;4990327;28;20041;-76
2022/09/02 05:32:33;;;;;;;3.00;1.52;;;12.40;99.90;;;;;;4992394;28;20097;-75
2022/09/02 05:34:59;;;;;;;2.78;1.58;;;12.60;99.90;;;;;;4990938;28;20045;-76
2022/09/02 05:37:25;;;;;;;3.45;1.27;;;12.70;99.90;;;;;;4986017;28;20046;-75
2022/09/02 05:39:51;;;;;;;1.48;1.25;;;12.60;99.90;;;;;;4986765;28;21001;-75
2022/09/02 05:42:19;;;;;;;3.47;1.35;;;12.60;99.90;;;;;;4991822;28;20033;-76
2022/09/02 05:44:45;;;;;;;1.88;1.73;;;12.60;99.90;;;;;;4971456;28;20053;-75
2022/09/02 05:47:11;;;;;;;4.85;1.30;;;12.60;99.90;;;;;;4986128;28;20042;-76
2022/09/02 05:49:37;;;;;;;2.90;1.17;;;12.60;99.90;;;;;;4986838;28;20058;-75
2022/09/02 05:52:04;;;;;;;2.95;1.52;;;12.70;99.90;;;;;;4985625;28;20058;-75
2022/09/02 05:54:32;;;;;;;3.75;1.20;;;12.80;99.90;;;;;;4987033;28;20054;-75
2022/09/02 05:57:01;;;;;;;4.85;1.10;;;12.70;99.90;;;;;;4985603;28;20042;-75
2022/09/02 05:59:30;;;;;;;4.45;1.13;;;12.90;99.90;;;;;;4984758;28;20061;-74
2022/09/02 06:01:58;;;;;;;3.33;1.30;;;12.90;99.90;;;;;;4984525;28;20038;-75
2022/09/02 06:04:24;;;;;;;1.85;1.40;;;13.00;99.90;;;;;;4985887;28;20062;-74
2022/09/02 06:06:50;;;;;;;5.90;1.83;;;13.00;99.90;;;;;;5000365;28;20050;-75
2022/09/02 06:09:19;;;;;;;3.15;1.52;;;13.10;99.90;;;;;;4979980;28;20129;-74
2022/09/02 06:11:48;;;;;;;1.58;1.40;;;13.20;99.90;;;;;;4984002;28;20077;-74
2022/09/02 06:14:16;;;;;;;5.05;1.48;;;13.20;99.90;;;;;;5016484;28;20054;-76
2022/09/02 06:16:42;;;;;;;4.45;1.15;;;13.40;99.90;;;;;;4984501;28;20046;-76
2022/09/02 06:19:08;;;;;;;3.33;1.33;;;13.40;99.90;;;;;;4984950;28;20120;-75
2022/09/02 06:21:37;;;;;;;2.60;1.30;;;13.40;99.90;;;;;;4987153;28;20425;-75
2022/09/02 06:24:07;;;;;;;2.78;1.52;;;13.60;99.90;;;;;;4998419;28;20840;-76
2022/09/02 06:26:33;;;;;;;2.03;1.35;;;13.60;99.90;;;;;;4988557;28;20081;-76
2022/09/02 06:28:58;;;;;;;4.85;1.45;;;13.60;99.90;;;;;;4985239;28;22363;-76
2022/09/02 06:31:24;;;;;;;4.28;1.83;;;13.70;99.90;;;;;;5011138;28;20534;-75
2022/09/02 06:33:55;;;;;;;3.97;1.23;;;13.70;99.90;;;;;;4985386;28;20133;-75
2022/09/02 06:36:22;;;;;;;7.45;1.75;;;13.80;99.90;;;;;;4985656;28;20121;-75
2022/09/02 06:38:50;;;;;;;1.85;1.00;;;13.80;99.90;;;;;;5013197;28;20078;-76
2022/09/02 06:41:19;;;;;;;1.50;1.20;;;13.90;99.90;;;;;;5017047;28;20061;-76
2022/09/02 06:43:45;;;;;;;4.43;1.30;;;14.00;99.90;;;;;;4986862;28;20089;-76
2022/09/02 06:46:19;;;;;;;3.95;1.13;;;14.10;99.90;;;;;;4985315;28;20422;-75
2022/09/02 06:48:44;;;;;;;3.05;1.00;;;14.10;99.90;;;;;;5017502;28;20062;-76
2022/09/02 06:51:27;;;;;;;6.07;1.23;;;14.30;99.90;;;;;;4989075;28;20038;-75
2022/09/02 06:53:53;;;;;;;2.53;1.40;;;14.40;99.90;;;;;;4985901;28;20045;-76
2022/09/02 06:56:19;;;;;;;1.02;0.93;;;14.50;99.90;;;;;;4984094;28;20490;-76
2022/09/02 06:58:45;;;;;;;3.25;1.30;;;14.70;99.90;;;;;;4985451;28;20050;-76
2022/09/02 07:01:21;;;;;;;4.20;1.05;;;15.10;99.90;;;;;;4985114;28;20041;-74
2022/09/02 07:06:37;;;;;;;1.88;1.20;;;16.50;99.90;;;;;;4985073;28;20046;-76
2022/09/02 07:09:08;;;;;;;2.15;1.30;;;16.10;99.90;;;;;;5013678;28;20103;-77
2022/09/02 07:11:35;;;;;;;2.42;1.35;;;15.60;99.90;;;;;;5006032;28;20382;-75
2022/09/02 07:14:01;;;;;;;2.65;1.40;;;15.50;99.90;;;;;;4995067;28;20625;-75
2022/09/02 07:16:29;;;;;;;2.42;1.30;;;15.50;99.90;;;;;;4977180;28;20054;-76
2022/09/02 07:18:55;;;;;;;2.25;1.38;;;15.60;99.90;;;;;;4977226;28;20060;-77
2022/09/02 07:21:21;;;;;;;5.38;1.10;;;15.60;99.90;;;;;;4984002;28;20030;-76
2022/09/02 07:23:47;;;;;;;4.35;2.10;;;15.80;99.90;;;;;;4985376;28;20118;-77
2022/09/02 07:26:16;;;;;;;2.13;1.17;;;15.90;99.90;;;;;;4984658;28;20639;-78
2022/09/02 07:28:42;;;;;;;2.27;1.10;;;16.10;99.90;;;;;;4982428;28;20046;-76
2022/09/02 07:31:09;;;;;;;4.97;2.20;;;16.30;99.90;;;;;;4981565;28;20429;-76
2022/09/02 07:33:35;;;;;;;2.38;0.90;;;16.30;99.90;;;;;;4974227;28;20465;-75
2022/09/02 07:36:03;;;;;;;1.98;1.10;;;16.50;99.90;;;;;;4999039;28;20101;-77
2022/09/02 07:38:30;;;;;;;3.45;1.20;;;16.70;99.90;;;;;;4982877;28;20134;-78
2022/09/02 07:40:56;;;;;;;1.42;0.90;;;16.80;99.90;;;;;;4981633;28;20038;-76
2022/09/02 07:43:21;;;;;;;7.10;1.15;;;16.90;99.90;;;;;;4991706;28;20096;-76
2022/09/02 07:45:49;;;;;;;24.65;2.97;;;17.00;99.90;;;;;;4991831;28;20046;-77
2022/09/02 07:48:15;;;;;;;5.38;1.02;;;17.00;99.90;;;;;;4991576;28;20046;-76
2022/09/02 07:50:41;;;;;;;2.53;0.93;;;17.20;99.90;;;;;;4990744;28;20478;-77
2022/09/02 07:53:07;;;;;;;6.55;1.30;;;17.30;99.90;;;;;;5018772;28;20105;-75
2022/09/02 07:55:35;;;;;;;2.20;1.13;;;17.30;99.90;;;;;;4983571;28;20050;-78
2022/09/02 07:58:02;;;;;;;7.55;0.90;;;17.50;99.90;;;;;;4992433;28;20046;-76
2022/09/02 08:00:28;;;;;;;2.25;1.10;;;17.50;99.90;;;;;;4982390;28;20054;-77
2022/09/02 08:02:54;;;;;;;5.22;0.57;;;17.60;99.90;;;;;;4993791;28;20042;-77
2022/09/02 08:05:21;;;;;;;3.15;1.27;;;17.80;99.90;;;;;;4982799;28;20117;-77
2022/09/02 08:07:46;;;;;;;5.97;1.95;;;18.00;99.90;;;;;;4982818;28;20473;-77
2022/09/02 08:10:12;;;;;;;3.20;1.40;;;18.10;99.90;;;;;;5019503;28;20034;-77
2022/09/02 08:12:42;;;;;;;3.80;0.88;;;18.10;99.90;;;;;;4988443;28;20567;-78
2022/09/02 08:15:10;;;;;;;2.55;0.93;;;18.20;99.90;;;;;;5019026;28;21098;-77
2022/09/02 08:17:39;;;;;;;2.47;0.90;;;18.20;99.90;;;;;;4984186;28;20047;-77
2022/09/02 08:20:10;;;;;;;5.18;2.00;;;18.40;99.90;;;;;;4985084;28;20035;-75
2022/09/02 08:22:36;;;;;;;6.95;1.67;;;18.30;99.90;;;;;;4987628;28;20057;-77
2022/09/02 08:25:03;;;;;;;15.77;1.52;;;18.40;99.90;;;;;;4984146;28;20050;-77
2022/09/02 08:27:29;;;;;;;1.10;0.60;;;18.70;99.90;;;;;;4988135;28;20421;-78
2022/09/02 08:29:55;;;;;;;4.05;0.90;;;18.70;99.90;;;;;;5000040;28;20133;-78
2022/09/02 08:32:21;;;;;;;4.53;1.30;;;18.90;99.90;;;;;;4985448;28;20509;-75
2022/09/02 08:34:46;;;;;;;3.05;1.33;;;19.00;99.90;;;;;;4987183;28;20050;-77
2022/09/02 08:37:12;;;;;;;3.03;0.80;;;19.20;99.90;;;;;;4988008;28;20038;-76
2022/09/02 08:39:38;;;;;;;3.28;0.75;;;19.20;99.90;;;;;;5018773;28;20042;-75
2022/09/02 08:42:19;;;;;;;3.60;0.88;;;19.30;99.90;;;;;;4971181;28;20043;-77
2022/09/02 08:44:46;;;;;;;14.80;1.33;;;19.30;99.90;;;;;;5018505;28;20054;-75
2022/09/02 08:47:21;;;;;;;6.47;1.35;;;19.60;99.90;;;;;;5002063;28;20038;-78
2022/09/02 08:49:54;;;;;;;1.45;0.40;;;19.60;99.90;;;;;;4992529;28;20093;-75
2022/09/02 08:52:41;;;;;;;7.68;0.73;;;19.70;99.90;;;;;;5022001;28;20593;-76
2022/09/02 08:55:11;;;;;;;2.13;0.70;;;19.70;99.90;;;;;;4981907;28;20049;-77
2022/09/02 08:57:37;;;;;;;2.92;0.77;;;19.90;99.90;;;;;;5003284;28;20042;-76
2022/09/02 09:00:03;;;;;;;1.73;0.50;;;19.70;99.90;;;;;;5005435;28;20481;-75
2022/09/02 09:02:55;;;;;;;4.53;0.93;;;20.00;99.90;;;;;;4989341;28;20089;-75
2022/09/02 09:05:50;;;;;;;5.32;0.70;;;19.90;99.90;;;;;;4985008;28;20150;-75
2022/09/02 09:08:46;;;;;;;4.97;0.50;;;20.10;99.90;;;;;;4980983;28;20323;-79
2022/09/02 09:11:12;;;;;;;7.97;0.80;;;20.20;99.90;;;;;;4993920;28;20125;-76
2022/09/02 09:13:50;;;;;;;0.60;0.40;;;20.40;99.90;;;;;;4994301;28;20117;-77
2022/09/02 09:16:34;;;;;;;2.85;0.50;;;20.40;99.90;;;;;;4991112;28;20187;-75
2022/09/02 09:19:16;;;;;;;2.30;0.82;;;20.60;99.90;;;;;;5013375;28;20061;-75
2022/09/02 09:21:43;;;;;;;2.15;0.82;;;20.60;99.90;;;;;;5020927;28;20489;-76
2022/09/02 09:24:45;;;;;;;7.10;0.70;;;20.70;99.90;;;;;;4985978;28;20046;-76
2022/09/02 09:27:14;;;;;;;5.07;0.63;;;20.90;99.90;;;;;;4972111;28;20039;-76
2022/09/02 09:29:40;;;;;;;7.53;1.25;;;20.80;99.90;;;;;;4995894;28;20094;-76
2022/09/02 09:32:28;;;;;;;3.88;1.38;;;20.90;99.90;;;;;;4987133;28;20080;-74
2022/09/02 09:34:56;;;;;;;1.95;1.20;;;20.90;99.90;;;;;;5002986;28;20234;-74
2022/09/02 09:37:40;;;;;;;1.77;0.63;;;21.00;99.90;;;;;;5020534;28;20042;-75
2022/09/02 09:40:19;;;;;;;2.83;1.13;;;21.00;99.90;;;;;;4990772;28;20054;-76
2022/09/02 09:42:46;;;;;;;1.73;1.40;;;21.40;99.90;;;;;;5025174;28;20042;-78
2022/09/02 09:45:15;;;;;;;8.68;0.68;;;21.30;99.90;;;;;;4987897;28;20053;-75
2022/09/02 09:47:41;;;;;;;3.78;0.90;;;21.40;99.90;;;;;;4978546;28;20082;-75
2022/09/02 09:50:12;;;;;;;2.92;1.00;;;21.60;99.90;;;;;;4995637;28;20476;-75
2022/09/02 09:52:38;;;;;;;5.57;0.85;;;21.40;99.90;;;;;;4990121;28;20047;-74
2022/09/02 09:55:11;;;;;;;1.63;0.60;;;21.60;99.90;;;;;;4984675;28;20176;-76
2022/09/02 09:57:40;;;;;;;1.92;1.05;;;21.40;99.90;;;;;;4985024;28;20050;-75
2022/09/02 10:00:28;;;;;;;2.00;0.47;;;21.60;99.90;;;;;;4986650;28;20043;-76
2022/09/02 10:03:00;;;;;;;3.88;0.70;;;21.90;99.90;;;;;;4972158;28;20400;-75
2022/09/02 10:05:25;;;;;;;1.90;0.60;;;21.80;99.90;;;;;;4985536;28;20042;-75
2022/09/02 10:08:18;;;;;;;3.45;0.80;;;21.80;99.90;;;;;;4986271;28;20042;-75
2022/09/02 10:11:23;;;;;;;2.58;0.60;;;21.90;99.90;;;;;;4987970;28;20042;-75
2022/09/02 10:13:49;;;;;;;3.85;0.82;;;22.00;99.90;;;;;;4984796;28;20061;-75
2022/09/02 10:16:30;;;;;;;5.70;1.02;;;21.90;99.90;;;;;;4986495;28;20042;-76
2022/09/02 10:19:21;;;;;;;4.80;0.88;;;22.00;99.90;;;;;;4970410;28;20101;-76
2022/09/02 10:22:05;;;;;;;2.20;0.60;;;22.20;99.90;;;;;;4969310;28;20057;-74
2022/09/02 10:24:56;;;;;;;3.05;0.57;;;22.20;99.90;;;;;;4982735;28;20066;-75
2022/09/02 10:27:59;;;;;;;4.00;0.60;;;22.30;99.90;;;;;;4985568;28;20046;-74
2022/09/02 10:30:27;;;;;;;3.08;0.70;;;22.30;99.90;;;;;;4984554;28;20058;-74
2022/09/02 10:33:08;;;;;;;5.68;0.57;;;22.40;99.90;;;;;;4984979;28;20042;-75
2022/09/02 10:36:07;;;;;;;4.00;0.63;;;22.40;99.90;;;;;;5001081;28;20416;-76
2022/09/02 10:38:45;;;;;;;0.70;0.45;;;22.60;99.90;;;;;;4983707;28;20058;-75
2022/09/02 10:41:41;;;;;;;4.15;0.63;;;22.50;99.90;;;;;;4986032;28;20046;-74
2022/09/02 10:44:22;;;;;;;8.75;0.65;;;22.40;99.90;;;;;;4984263;28;20026;-75
2022/09/02 10:46:59;;;;;;;4.22;0.73;;;22.60;99.90;;;;;;5001757;28;20046;-75
2022/09/02 10:49:45;;;;;;;5.45;1.17;;;22.40;99.90;;;;;;4958813;28;20481;-75
2022/09/02 10:52:30;;;;;;;4.78;0.77;;;22.70;99.90;;;;;;5017497;28;20140;-75
2022/09/02 10:55:23;;;;;;;4.28;0.90;;;22.80;99.90;;;;;;5011440;28;20046;-76
2022/09/02 10:58:22;;;;;;;7.13;1.10;;;22.80;99.90;;;;;;5013582;28;20104;-76
2022/09/02 11:00:51;;;;;;;9.55;0.90;;;22.90;99.90;;;;;;4968279;28;20073;-75
2022/09/02 11:03:23;;;;;;;4.63;0.60;;;22.90;99.90;;;;;;4982442;28;20114;-75
2022/09/02 11:05:51;;;;;;;3.67;0.73;;;22.80;99.90;;;;;;4984155;28;20046;-76
2022/09/02 11:08:49;;;;;;;1.88;0.52;;;22.90;99.90;;;;;;5003218;28;20050;-76
2022/09/02 11:11:21;;;;;;;2.83;0.50;;;23.10;99.90;;;;;;5016138;28;20057;-74
2022/09/02 11:14:14;;;;;;;2.33;0.75;;;23.10;99.90;;;;;;4988929;28;20084;-79
2022/09/02 11:17:02;;;;;;;2.88;0.70;;;23.10;99.90;;;;;;5015596;28;20064;-77
2022/09/02 11:19:41;;;;;;;2.13;0.47;;;23.30;99.90;;;;;;5019577;28;20057;-78
2022/09/02 11:22:32;;;;;;;2.83;0.43;;;23.30;99.60;;;;;;4991474;28;20541;-78
2022/09/02 11:25:07;;;;;;;4.32;1.17;;;23.60;99.60;;;;;;4987940;28;20042;-81
2022/09/02 11:27:41;;;;;;;6.97;1.65;;;23.70;99.10;;;;;;4999385;28;20569;-78
2022/09/02 11:30:15;;;;;;;2.35;0.60;;;23.50;99.30;;;;;;5002881;28;20053;-78
2022/09/02 11:32:54;;;;;;;5.57;0.57;;;23.40;99.00;;;;;;4988698;28;20046;-79
2022/09/02 11:35:26;;;;;;;2.08;0.60;;;23.60;99.90;;;;;;4994073;28;20035;-78
2022/09/02 11:38:26;;;;;;;3.72;0.80;;;23.50;99.40;;;;;;4992513;28;20039;-78
2022/09/02 11:41:06;;;;;;;1.10;0.50;;;23.60;98.80;;;;;;4990473;28;20062;-78
2022/09/02 11:43:38;;;;;;;2.83;0.50;;;23.50;99.30;;;;;;4966512;28;20133;-78
2022/09/02 11:46:04;;;;;;;5.45;0.50;;;23.50;99.50;;;;;;4976198;28;20112;-80
2022/09/02 11:48:51;;;;;;;7.47;1.25;;;23.60;98.90;;;;;;5014310;28;20469;-78
2022/09/02 11:51:54;;;;;;;3.42;0.60;;;23.30;98.40;;;;;;4983440;28;20080;-80
2022/09/02 11:54:24;;;;;;;1.05;0.50;;;23.50;99.20;;;;;;4987705;28;20074;-79
2022/09/02 11:56:58;;;;;;;2.03;0.65;;;23.60;98.80;;;;;;4979858;28;20491;-79
2022/09/02 11:59:51;;;;;;;5.65;0.75;;;23.50;98.70;;;;;;4983021;28;20481;-80
2022/09/02 12:02:38;;;;;;;5.35;1.05;;;23.60;98.70;;;;;;5009542;28;20046;-80
2022/09/02 12:05:30;;;;;;;0.77;0.30;;;23.60;98.50;;;;;;4992416;28;20043;-78
2022/09/02 12:08:01;;;;;;;5.32;0.43;;;23.70;98.70;;;;;;4969228;28;20401;-77
2022/09/02 12:10:42;;;;;;;3.28;0.95;;;23.80;98.10;;;;;;5006213;28;20057;-78
2022/09/02 12:13:37;;;;;;;4.05;0.88;;;23.90;97.70;;;;;;4991576;28;20397;-78
2022/09/02 12:16:15;;;;;;;1.67;0.60;;;23.80;97.60;;;;;;4980766;28;20062;-79
2022/09/02 12:18:45;;;;;;;4.82;0.47;;;23.70;97.60;;;;;;4989384;28;20050;-79
2022/09/02 12:21:15;;;;;;;0.52;0.40;;;24.00;98.40;;;;;;4978166;28;20043;-78
2022/09/02 12:23:51;;;;;;;;;;;24.10;98.10;;;;;;4982842;28;20481;-78
2022/09/02 12:26:18;;;;;;;3.50;0.50;;;24.10;97.90;;;;;;4988517;28;19921;-79
2022/09/02 12:28:45;;;;;;;3.97;0.75;;;24.10;97.40;;;;;;4984087;28;20125;-78
2022/09/02 12:31:19;;;;;;;3.13;0.50;;;24.10;97.60;;;;;;4985412;28;20145;-78
2022/09/02 12:33:50;;;;;;;2.85;0.90;;;24.20;98.00;;;;;;4978400;28;20043;-79
2022/09/02 12:36:38;;;;;;;8.93;1.33;;;24.20;97.60;;;;;;4982150;28;20038;-78
2022/09/02 12:39:23;;;;;;;10.18;1.88;;;24.10;97.40;;;;;;4982126;28;20061;-79
2022/09/02 12:42:09;;;;;;;5.47;0.70;;;24.30;97.90;;;;;;4981717;28;20042;-77
2022/09/02 12:44:44;;;;;;;8.20;0.70;;;24.70;97.70;;;;;;4982161;28;20085;-80
2022/09/02 12:47:19;;;;;;;2.42;0.60;;;24.70;97.70;;;;;;4985078;28;20047;-78
2022/09/02 12:49:52;;;;;;;0.73;0.60;;;24.60;97.50;;;;;;5018905;28;20068;-78
2022/09/02 12:52:33;;;;;;;2.35;0.63;;;24.50;97.20;;;;;;4984069;28;20057;-78
2022/09/02 12:55:09;;;;;;;4.97;0.75;;;24.70;97.50;;;;;;4981303;28;20142;-76
2022/09/02 12:57:39;;;;;;;4.95;1.05;;;24.80;97.00;;;;;;4983828;28;20125;-75
2022/09/02 13:00:05;;;;;;;2.67;0.52;;;24.80;97.10;;;;;;4988550;28;20058;-80
2022/09/02 13:02:41;;;;;;;1.73;0.93;;;24.90;96.90;;;;;;4988665;28;20050;-79
2022/09/02 13:05:37;;;;;;;1.70;0.60;;;24.80;96.40;;;;;;5000352;28;20034;-78
2022/09/02 13:08:21;;;;;;;1.00;0.70;;;24.70;96.40;;;;;;4988372;28;20056;-80
2022/09/02 13:10:52;;;;;;;6.35;0.70;;;24.50;96.50;;;;;;5018784;28;20049;-81